sensor_id;sensor_type;location;lat;lon;timestamp;P1;durP1;ratioP1;P2;durP2;ratioP2
15764;SDS011;7983;50.744;7.086;2023-02-26T00:01:18;3.17;;;1.70;;
15764;SDS011;7983;50.744;7.086;2023-02-26T00:03:49;2.50;;;1.40;;
15764;SDS011;7983;50.744;7.086;2023-02-26T00:06:16;5.43;;;1.50;;
15764;SDS011;7983;50.744;7.086;2023-02-26T00:08:42;2.90;;;1.33;;
15764;SDS011;7983;50.744;7.086;2023-02-26T00:11:10;3.40;;;1.60;;
15764;SDS011;7983;50.744;7.086;2023-02-26T00:13:42;3.37;;;1.67;;
15764;SDS011;7983;50.744;7.086;2023-02-26T00:16:12;3.47;;;1.60;;
15764;SDS011;7983;50.744;7.086;2023-02-26T00:18:41;4.10;;;1.30;;
15764;SDS011;7983;50.744;7.086;2023-02-26T00:21:07;2.33;;;1.37;;
15764;SDS011;7983;50.744;7.086;2023-02-26T00:23:43;2.87;;;1.37;;
15764;SDS011;7983;50.744;7.086;2023-02-26T00:26:13;4.60;;;1.47;;
15764;SDS011;7983;50.744;7.086;2023-02-26T00:28:39;1.30;;;1.00;;
15764;SDS011;7983;50.744;7.086;2023-02-26T00:31:05;3.03;;;1.33;;
15764;SDS011;7983;50.744;7.086;2023-02-26T00:33:31;2.07;;;1.43;;
15764;SDS011;7983;50.744;7.086;2023-02-26T00:36:40;2.70;;;1.40;;
15764;SDS011;7983;50.744;7.086;2023-02-26T00:41:44;3.63;;;1.50;;
15764;SDS011;7983;50.744;7.086;2023-02-26T00:44:10;2.23;;;1.20;;
15764;SDS011;7983;50.744;7.086;2023-02-26T00:49:12;3.40;;;1.60;;
15764;SDS011;7983;50.744;7.086;2023-02-26T00:54:22;2.50;;;1.33;;
15764;SDS011;7983;50.744;7.086;2023-02-26T00:56:53;2.37;;;1.20;;
15764;SDS011;7983;50.744;7.086;2023-02-26T00:59:20;3.33;;;1.67;;
15764;SDS011;7983;50.744;7.086;2023-02-26T01:01:51;3.30;;;1.40;;
15764;SDS011;7983;50.744;7.086;2023-02-26T01:04:20;2.73;;;1.60;;
15764;SDS011;7983;50.744;7.086;2023-02-26T01:06:50;2.40;;;1.50;;
15764;SDS011;7983;50.744;7.086;2023-02-26T01:11:52;2.97;;;1.80;;
15764;SDS011;7983;50.744;7.086;2023-02-26T01:14:22;2.23;;;1.30;;
15764;SDS011;7983;50.744;7.086;2023-02-26T01:19:44;2.23;;;1.37;;
15764;SDS011;7983;50.744;7.086;2023-02-26T01:24:47;2.40;;;1.50;;
15764;SDS011;7983;50.744;7.086;2023-02-26T01:27:16;3.33;;;1.60;;
15764;SDS011;7983;50.744;7.086;2023-02-26T01:29:42;3.50;;;1.40;;
15764;SDS011;7983;50.744;7.086;2023-02-26T01:32:14;2.63;;;1.40;;
15764;SDS011;7983;50.744;7.086;2023-02-26T01:35:15;3.00;;;1.57;;
15764;SDS011;7983;50.744;7.086;2023-02-26T01:38:00;1.40;;;1.10;;
15764;SDS011;7983;50.744;7.086;2023-02-26T01:43:33;2.13;;;1.10;;
15764;SDS011;7983;50.744;7.086;2023-02-26T01:49:18;2.67;;;1.53;;
15764;SDS011;7983;50.744;7.086;2023-02-26T01:51:48;3.67;;;1.40;;
15764;SDS011;7983;50.744;7.086;2023-02-26T01:54:14;1.77;;;1.37;;
15764;SDS011;7983;50.744;7.086;2023-02-26T01:56:44;3.33;;;1.30;;
15764;SDS011;7983;50.744;7.086;2023-02-26T01:59:14;2.73;;;1.47;;
15764;SDS011;7983;50.744;7.086;2023-02-26T02:01:41;2.93;;;1.27;;
15764;SDS011;7983;50.744;7.086;2023-02-26T02:04:09;2.67;;;1.33;;
15764;SDS011;7983;50.744;7.086;2023-02-26T02:06:38;2.60;;;1.60;;
15764;SDS011;7983;50.744;7.086;2023-02-26T02:09:09;3.43;;;1.37;;
15764;SDS011;7983;50.744;7.086;2023-02-26T02:11:48;2.10;;;1.30;;
15764;SDS011;7983;50.744;7.086;2023-02-26T02:17:36;2.43;;;1.40;;
15764;SDS011;7983;50.744;7.086;2023-02-26T02:20:59;2.47;;;1.20;;
15764;SDS011;7983;50.744;7.086;2023-02-26T02:23:16;1.77;;;1.20;;
15764;SDS011;7983;50.744;7.086;2023-02-26T02:31:41;3.10;;;1.17;;
15764;SDS011;7983;50.744;7.086;2023-02-26T02:34:12;1.50;;;1.20;;
15764;SDS011;7983;50.744;7.086;2023-02-26T02:36:42;1.37;;;1.17;;
15764;SDS011;7983;50.744;7.086;2023-02-26T02:39:35;2.30;;;1.10;;
15764;SDS011;7983;50.744;7.086;2023-02-26T02:45:12;2.17;;;1.30;;
15764;SDS011;7983;50.744;7.086;2023-02-26T02:47:46;2.00;;;1.40;;
15764;SDS011;7983;50.744;7.086;2023-02-26T02:50:27;1.43;;;1.27;;
15764;SDS011;7983;50.744;7.086;2023-02-26T02:53:01;2.43;;;1.30;;
15764;SDS011;7983;50.744;7.086;2023-02-26T02:55:37;3.10;;;1.27;;
15764;SDS011;7983;50.744;7.086;2023-02-26T02:58:09;2.10;;;1.50;;
15764;SDS011;7983;50.744;7.086;2023-02-26T03:00:47;1.97;;;1.37;;
15764;SDS011;7983;50.744;7.086;2023-02-26T03:03:29;3.00;;;1.33;;
15764;SDS011;7983;50.744;7.086;2023-02-26T03:05:59;2.43;;;1.40;;
15764;SDS011;7983;50.744;7.086;2023-02-26T03:08:29;3.43;;;1.50;;
15764;SDS011;7983;50.744;7.086;2023-02-26T03:10:59;2.53;;;1.30;;
15764;SDS011;7983;50.744;7.086;2023-02-26T03:13:25;2.63;;;1.30;;
15764;SDS011;7983;50.744;7.086;2023-02-26T03:21:09;1.73;;;1.30;;
15764;SDS011;7983;50.744;7.086;2023-02-26T03:23:54;3.40;;;1.60;;
15764;SDS011;7983;50.744;7.086;2023-02-26T03:29:17;2.33;;;1.40;;
15764;SDS011;7983;50.744;7.086;2023-02-26T03:32:08;2.00;;;1.53;;
15764;SDS011;7983;50.744;7.086;2023-02-26T03:40:56;2.60;;;1.30;;
15764;SDS011;7983;50.744;7.086;2023-02-26T03:43:27;2.50;;;1.53;;
15764;SDS011;7983;50.744;7.086;2023-02-26T03:46:01;2.30;;;1.30;;
15764;SDS011;7983;50.744;7.086;2023-02-26T03:48:32;1.63;;;1.20;;
15764;SDS011;7983;50.744;7.086;2023-02-26T03:51:04;2.27;;;1.20;;
15764;SDS011;7983;50.744;7.086;2023-02-26T03:53:35;1.50;;;1.10;;
15764;SDS011;7983;50.744;7.086;2023-02-26T03:58:49;3.20;;;1.40;;
15764;SDS011;7983;50.744;7.086;2023-02-26T04:01:25;2.30;;;1.43;;
15764;SDS011;7983;50.744;7.086;2023-02-26T04:04:06;1.93;;;1.30;;
15764;SDS011;7983;50.744;7.086;2023-02-26T04:06:39;2.03;;;1.20;;
15764;SDS011;7983;50.744;7.086;2023-02-26T04:09:06;2.03;;;1.50;;
15764;SDS011;7983;50.744;7.086;2023-02-26T04:11:37;1.60;;;1.30;;
15764;SDS011;7983;50.744;7.086;2023-02-26T04:14:04;1.47;;;1.20;;
15764;SDS011;7983;50.744;7.086;2023-02-26T04:16:32;1.97;;;1.20;;
15764;SDS011;7983;50.744;7.086;2023-02-26T04:18:58;2.20;;;1.30;;
15764;SDS011;7983;50.744;7.086;2023-02-26T04:21:23;2.30;;;1.60;;
15764;SDS011;7983;50.744;7.086;2023-02-26T04:23:51;3.57;;;1.43;;
15764;SDS011;7983;50.744;7.086;2023-02-26T04:26:19;4.07;;;1.70;;
15764;SDS011;7983;50.744;7.086;2023-02-26T04:28:44;3.47;;;1.53;;
15764;SDS011;7983;50.744;7.086;2023-02-26T04:31:10;1.90;;;1.30;;
15764;SDS011;7983;50.744;7.086;2023-02-26T04:33:36;2.93;;;1.60;;
15764;SDS011;7983;50.744;7.086;2023-02-26T04:36:02;2.23;;;1.90;;
15764;SDS011;7983;50.744;7.086;2023-02-26T04:38:30;3.00;;;1.67;;
15764;SDS011;7983;50.744;7.086;2023-02-26T04:40:56;3.47;;;1.70;;
15764;SDS011;7983;50.744;7.086;2023-02-26T04:43:21;2.17;;;1.40;;
15764;SDS011;7983;50.744;7.086;2023-02-26T04:45:47;2.07;;;1.47;;
15764;SDS011;7983;50.744;7.086;2023-02-26T04:48:14;2.27;;;1.30;;
15764;SDS011;7983;50.744;7.086;2023-02-26T04:50:40;1.50;;;1.40;;
15764;SDS011;7983;50.744;7.086;2023-02-26T04:53:06;1.80;;;1.50;;
15764;SDS011;7983;50.744;7.086;2023-02-26T04:55:33;1.87;;;1.60;;
15764;SDS011;7983;50.744;7.086;2023-02-26T04:58:02;2.00;;;1.20;;
15764;SDS011;7983;50.744;7.086;2023-02-26T05:00:30;1.63;;;1.20;;
15764;SDS011;7983;50.744;7.086;2023-02-26T05:02:56;2.43;;;1.37;;
15764;SDS011;7983;50.744;7.086;2023-02-26T05:05:24;2.37;;;1.40;;
15764;SDS011;7983;50.744;7.086;2023-02-26T05:07:50;2.33;;;1.27;;
15764;SDS011;7983;50.744;7.086;2023-02-26T05:10:21;1.57;;;1.20;;
15764;SDS011;7983;50.744;7.086;2023-02-26T05:12:48;1.37;;;1.20;;
15764;SDS011;7983;50.744;7.086;2023-02-26T05:15:15;1.37;;;1.00;;
15764;SDS011;7983;50.744;7.086;2023-02-26T05:17:41;1.80;;;1.20;;
15764;SDS011;7983;50.744;7.086;2023-02-26T05:20:07;2.77;;;1.07;;
15764;SDS011;7983;50.744;7.086;2023-02-26T05:22:34;1.77;;;1.10;;
15764;SDS011;7983;50.744;7.086;2023-02-26T05:25:03;1.47;;;1.03;;
15764;SDS011;7983;50.744;7.086;2023-02-26T05:27:32;2.10;;;1.10;;
15764;SDS011;7983;50.744;7.086;2023-02-26T05:29:58;2.40;;;1.10;;
15764;SDS011;7983;50.744;7.086;2023-02-26T05:32:26;2.10;;;1.00;;
15764;SDS011;7983;50.744;7.086;2023-02-26T05:34:54;1.60;;;1.20;;
15764;SDS011;7983;50.744;7.086;2023-02-26T05:37:20;2.10;;;1.13;;
15764;SDS011;7983;50.744;7.086;2023-02-26T05:39:50;1.53;;;1.03;;
15764;SDS011;7983;50.744;7.086;2023-02-26T05:42:15;1.47;;;0.90;;
15764;SDS011;7983;50.744;7.086;2023-02-26T05:44:43;2.07;;;1.00;;
15764;SDS011;7983;50.744;7.086;2023-02-26T05:47:09;1.30;;;1.00;;
15764;SDS011;7983;50.744;7.086;2023-02-26T05:49:34;3.17;;;1.23;;
15764;SDS011;7983;50.744;7.086;2023-02-26T05:52:01;2.83;;;1.07;;
15764;SDS011;7983;50.744;7.086;2023-02-26T05:54:29;1.67;;;0.80;;
15764;SDS011;7983;50.744;7.086;2023-02-26T05:56:54;1.20;;;0.90;;
15764;SDS011;7983;50.744;7.086;2023-02-26T05:59:20;2.70;;;1.20;;
15764;SDS011;7983;50.744;7.086;2023-02-26T06:01:46;1.93;;;1.10;;
15764;SDS011;7983;50.744;7.086;2023-02-26T06:04:14;2.60;;;1.10;;
15764;SDS011;7983;50.744;7.086;2023-02-26T06:06:42;1.20;;;0.90;;
15764;SDS011;7983;50.744;7.086;2023-02-26T06:09:10;2.60;;;1.20;;
15764;SDS011;7983;50.744;7.086;2023-02-26T06:11:35;1.53;;;1.20;;
15764;SDS011;7983;50.744;7.086;2023-02-26T06:14:04;1.93;;;1.13;;
15764;SDS011;7983;50.744;7.086;2023-02-26T06:16:30;2.20;;;1.10;;
15764;SDS011;7983;50.744;7.086;2023-02-26T06:18:56;1.03;;;0.90;;
15764;SDS011;7983;50.744;7.086;2023-02-26T06:21:22;3.13;;;1.20;;
15764;SDS011;7983;50.744;7.086;2023-02-26T06:23:50;2.27;;;1.37;;
15764;SDS011;7983;50.744;7.086;2023-02-26T06:26:20;3.07;;;2.13;;
15764;SDS011;7983;50.744;7.086;2023-02-26T06:28:48;2.73;;;1.90;;
15764;SDS011;7983;50.744;7.086;2023-02-26T06:31:14;2.77;;;1.73;;
15764;SDS011;7983;50.744;7.086;2023-02-26T06:33:39;2.27;;;1.43;;
15764;SDS011;7983;50.744;7.086;2023-02-26T06:36:07;1.90;;;1.23;;
15764;SDS011;7983;50.744;7.086;2023-02-26T06:38:35;1.60;;;1.20;;
15764;SDS011;7983;50.744;7.086;2023-02-26T06:41:03;2.10;;;1.50;;
15764;SDS011;7983;50.744;7.086;2023-02-26T06:43:28;4.13;;;1.90;;
15764;SDS011;7983;50.744;7.086;2023-02-26T06:45:58;2.60;;;1.53;;
15764;SDS011;7983;50.744;7.086;2023-02-26T06:48:24;2.23;;;1.50;;
15764;SDS011;7983;50.744;7.086;2023-02-26T06:50:51;2.50;;;1.30;;
15764;SDS011;7983;50.744;7.086;2023-02-26T06:53:16;3.23;;;1.57;;
15764;SDS011;7983;50.744;7.086;2023-02-26T06:55:45;2.17;;;1.67;;
15764;SDS011;7983;50.744;7.086;2023-02-26T06:58:13;1.97;;;1.47;;
15764;SDS011;7983;50.744;7.086;2023-02-26T07:00:39;2.47;;;1.40;;
15764;SDS011;7983;50.744;7.086;2023-02-26T07:03:08;2.90;;;1.53;;
15764;SDS011;7983;50.744;7.086;2023-02-26T07:05:36;3.37;;;1.40;;
15764;SDS011;7983;50.744;7.086;2023-02-26T07:08:01;1.93;;;1.40;;
15764;SDS011;7983;50.744;7.086;2023-02-26T07:10:32;2.40;;;1.60;;
15764;SDS011;7983;50.744;7.086;2023-02-26T07:13:01;1.57;;;1.47;;
15764;SDS011;7983;50.744;7.086;2023-02-26T07:15:29;3.63;;;3.17;;
15764;SDS011;7983;50.744;7.086;2023-02-26T07:17:57;3.00;;;1.93;;
15764;SDS011;7983;50.744;7.086;2023-02-26T07:20:24;1.80;;;1.40;;
15764;SDS011;7983;50.744;7.086;2023-02-26T07:22:55;3.03;;;1.90;;
15764;SDS011;7983;50.744;7.086;2023-02-26T07:25:21;3.37;;;1.83;;
15764;SDS011;7983;50.744;7.086;2023-02-26T07:27:49;2.40;;;1.80;;
15764;SDS011;7983;50.744;7.086;2023-02-26T07:30:15;2.40;;;1.67;;
15764;SDS011;7983;50.744;7.086;2023-02-26T07:32:41;2.17;;;1.80;;
15764;SDS011;7983;50.744;7.086;2023-02-26T07:35:10;1.80;;;1.40;;
15764;SDS011;7983;50.744;7.086;2023-02-26T07:37:38;2.53;;;2.07;;
15764;SDS011;7983;50.744;7.086;2023-02-26T07:40:03;1.90;;;1.70;;
15764;SDS011;7983;50.744;7.086;2023-02-26T07:42:31;1.93;;;1.73;;
15764;SDS011;7983;50.744;7.086;2023-02-26T07:44:57;5.13;;;4.03;;
15764;SDS011;7983;50.744;7.086;2023-02-26T07:47:23;4.00;;;2.70;;
15764;SDS011;7983;50.744;7.086;2023-02-26T07:49:49;3.67;;;2.40;;
15764;SDS011;7983;50.744;7.086;2023-02-26T07:52:19;3.07;;;2.07;;
15764;SDS011;7983;50.744;7.086;2023-02-26T07:54:45;3.13;;;2.30;;
15764;SDS011;7983;50.744;7.086;2023-02-26T07:57:13;3.30;;;2.10;;
15764;SDS011;7983;50.744;7.086;2023-02-26T07:59:41;2.43;;;2.13;;
15764;SDS011;7983;50.744;7.086;2023-02-26T08:02:09;3.07;;;1.90;;
15764;SDS011;7983;50.744;7.086;2023-02-26T08:04:35;2.80;;;2.10;;
15764;SDS011;7983;50.744;7.086;2023-02-26T08:07:01;2.60;;;1.80;;
15764;SDS011;7983;50.744;7.086;2023-02-26T08:09:31;3.03;;;2.20;;
15764;SDS011;7983;50.744;7.086;2023-02-26T08:11:57;2.87;;;2.17;;
15764;SDS011;7983;50.744;7.086;2023-02-26T08:14:25;2.77;;;2.10;;
15764;SDS011;7983;50.744;7.086;2023-02-26T08:16:53;2.30;;;2.03;;
15764;SDS011;7983;50.744;7.086;2023-02-26T08:19:20;2.37;;;2.10;;
15764;SDS011;7983;50.744;7.086;2023-02-26T08:21:46;2.70;;;1.97;;
15764;SDS011;7983;50.744;7.086;2023-02-26T08:24:12;3.50;;;2.30;;
15764;SDS011;7983;50.744;7.086;2023-02-26T08:26:40;2.50;;;2.20;;
15764;SDS011;7983;50.744;7.086;2023-02-26T08:29:06;2.83;;;2.47;;
15764;SDS011;7983;50.744;7.086;2023-02-26T08:31:32;2.70;;;2.20;;
15764;SDS011;7983;50.744;7.086;2023-02-26T08:33:59;2.77;;;2.27;;
15764;SDS011;7983;50.744;7.086;2023-02-26T08:36:25;2.20;;;2.00;;
15764;SDS011;7983;50.744;7.086;2023-02-26T08:38:51;3.23;;;2.17;;
15764;SDS011;7983;50.744;7.086;2023-02-26T08:41:19;4.43;;;3.10;;
15764;SDS011;7983;50.744;7.086;2023-02-26T08:43:44;3.70;;;2.77;;
15764;SDS011;7983;50.744;7.086;2023-02-26T08:46:10;3.20;;;2.53;;
15764;SDS011;7983;50.744;7.086;2023-02-26T08:48:36;6.33;;;2.63;;
15764;SDS011;7983;50.744;7.086;2023-02-26T08:51:01;3.53;;;2.40;;
15764;SDS011;7983;50.744;7.086;2023-02-26T08:53:27;3.53;;;2.40;;
15764;SDS011;7983;50.744;7.086;2023-02-26T08:55:57;3.60;;;2.60;;
15764;SDS011;7983;50.744;7.086;2023-02-26T08:58:23;4.47;;;2.53;;
15764;SDS011;7983;50.744;7.086;2023-02-26T09:00:49;3.73;;;2.30;;
15764;SDS011;7983;50.744;7.086;2023-02-26T09:03:19;4.13;;;2.20;;
15764;SDS011;7983;50.744;7.086;2023-02-26T09:05:45;2.20;;;2.00;;
15764;SDS011;7983;50.744;7.086;2023-02-26T09:08:14;2.43;;;2.00;;
15764;SDS011;7983;50.744;7.086;2023-02-26T09:10:44;4.00;;;2.30;;
15764;SDS011;7983;50.744;7.086;2023-02-26T09:13:10;2.43;;;2.23;;
15764;SDS011;7983;50.744;7.086;2023-02-26T09:15:35;2.47;;;1.90;;
15764;SDS011;7983;50.744;7.086;2023-02-26T09:18:04;2.47;;;1.87;;
15764;SDS011;7983;50.744;7.086;2023-02-26T09:20:29;2.83;;;2.27;;
15764;SDS011;7983;50.744;7.086;2023-02-26T09:22:57;2.87;;;1.70;;
15764;SDS011;7983;50.744;7.086;2023-02-26T09:25:28;1.73;;;1.63;;
15764;SDS011;7983;50.744;7.086;2023-02-26T09:27:53;2.10;;;1.83;;
15764;SDS011;7983;50.744;7.086;2023-02-26T09:30:19;3.10;;;1.90;;
15764;SDS011;7983;50.744;7.086;2023-02-26T09:32:45;2.37;;;1.70;;
15764;SDS011;7983;50.744;7.086;2023-02-26T09:35:10;2.73;;;2.13;;
15764;SDS011;7983;50.744;7.086;2023-02-26T09:37:38;3.33;;;2.20;;
15764;SDS011;7983;50.744;7.086;2023-02-26T09:40:04;3.00;;;1.97;;
15764;SDS011;7983;50.744;7.086;2023-02-26T09:42:45;2.43;;;1.70;;
15764;SDS011;7983;50.744;7.086;2023-02-26T09:45:30;3.03;;;2.10;;
15764;SDS011;7983;50.744;7.086;2023-02-26T09:48:01;3.57;;;1.83;;
15764;SDS011;7983;50.744;7.086;2023-02-26T09:50:37;2.30;;;1.77;;
15764;SDS011;7983;50.744;7.086;2023-02-26T09:53:10;2.17;;;1.97;;
15764;SDS011;7983;50.744;7.086;2023-02-26T09:55:41;3.33;;;1.90;;
15764;SDS011;7983;50.744;7.086;2023-02-26T09:58:27;2.83;;;1.73;;
15764;SDS011;7983;50.744;7.086;2023-02-26T10:11:29;1.37;;;0.70;;
15764;SDS011;7983;50.744;7.086;2023-02-26T10:16:42;1.57;;;1.00;;
15764;SDS011;7983;50.744;7.086;2023-02-26T10:19:13;1.13;;;0.90;;
15764;SDS011;7983;50.744;7.086;2023-02-26T10:26:55;2.63;;;1.30;;
15764;SDS011;7983;50.744;7.086;2023-02-26T10:29:34;1.23;;;0.83;;
15764;SDS011;7983;50.744;7.086;2023-02-26T10:32:23;1.73;;;1.23;;
15764;SDS011;7983;50.744;7.086;2023-02-26T10:34:59;0.80;;;0.80;;
15764;SDS011;7983;50.744;7.086;2023-02-26T10:40:25;2.00;;;1.10;;
15764;SDS011;7983;50.744;7.086;2023-02-26T10:42:59;0.90;;;0.80;;
15764;SDS011;7983;50.744;7.086;2023-02-26T10:48:41;2.03;;;1.03;;
15764;SDS011;7983;50.744;7.086;2023-02-26T10:51:18;2.40;;;0.90;;
15764;SDS011;7983;50.744;7.086;2023-02-26T10:53:52;1.77;;;0.90;;
15764;SDS011;7983;50.744;7.086;2023-02-26T10:56:32;2.20;;;0.90;;
15764;SDS011;7983;50.744;7.086;2023-02-26T10:59:02;1.97;;;0.97;;
15764;SDS011;7983;50.744;7.086;2023-02-26T11:01:29;0.93;;;0.80;;
15764;SDS011;7983;50.744;7.086;2023-02-26T11:04:07;1.67;;;0.70;;
15764;SDS011;7983;50.744;7.086;2023-02-26T11:06:56;1.47;;;0.80;;
15764;SDS011;7983;50.744;7.086;2023-02-26T11:12:34;2.67;;;1.80;;
15764;SDS011;7983;50.744;7.086;2023-02-26T11:14:44;1.57;;;1.10;;
15764;SDS011;7983;50.744;7.086;2023-02-26T11:17:19;1.63;;;1.17;;
15764;SDS011;7983;50.744;7.086;2023-02-26T11:22:33;1.90;;;0.90;;
15764;SDS011;7983;50.744;7.086;2023-02-26T11:25:01;1.37;;;0.70;;
15764;SDS011;7983;50.744;7.086;2023-02-26T11:27:35;1.47;;;0.87;;
15764;SDS011;7983;50.744;7.086;2023-02-26T11:30:06;0.97;;;0.70;;
15764;SDS011;7983;50.744;7.086;2023-02-26T11:32:42;1.43;;;0.80;;
15764;SDS011;7983;50.744;7.086;2023-02-26T11:35:13;1.67;;;0.87;;
15764;SDS011;7983;50.744;7.086;2023-02-26T11:37:41;1.57;;;0.83;;
15764;SDS011;7983;50.744;7.086;2023-02-26T11:40:14;1.97;;;1.50;;
15764;SDS011;7983;50.744;7.086;2023-02-26T11:42:44;1.37;;;1.17;;
15764;SDS011;7983;50.744;7.086;2023-02-26T11:45:17;1.40;;;0.90;;
15764;SDS011;7983;50.744;7.086;2023-02-26T11:47:44;1.67;;;1.07;;
15764;SDS011;7983;50.744;7.086;2023-02-26T11:50:18;2.40;;;1.07;;
15764;SDS011;7983;50.744;7.086;2023-02-26T11:52:47;1.57;;;0.80;;
15764;SDS011;7983;50.744;7.086;2023-02-26T11:55:37;1.23;;;0.70;;
15764;SDS011;7983;50.744;7.086;2023-02-26T11:58:22;1.10;;;0.70;;
15764;SDS011;7983;50.744;7.086;2023-02-26T12:00:52;1.60;;;0.70;;
15764;SDS011;7983;50.744;7.086;2023-02-26T12:03:22;2.10;;;0.80;;
15764;SDS011;7983;50.744;7.086;2023-02-26T12:05:52;1.37;;;0.80;;
15764;SDS011;7983;50.744;7.086;2023-02-26T12:08:25;1.53;;;0.77;;
15764;SDS011;7983;50.744;7.086;2023-02-26T12:11:46;1.47;;;0.73;;
15764;SDS011;7983;50.744;7.086;2023-02-26T12:14:04;1.47;;;0.73;;
15764;SDS011;7983;50.744;7.086;2023-02-26T12:16:42;1.40;;;0.60;;
15764;SDS011;7983;50.744;7.086;2023-02-26T12:22:22;1.70;;;1.20;;
15764;SDS011;7983;50.744;7.086;2023-02-26T12:38:15;1.57;;;0.80;;
15764;SDS011;7983;50.744;7.086;2023-02-26T12:41:00;1.60;;;0.70;;
15764;SDS011;7983;50.744;7.086;2023-02-26T12:43:46;1.53;;;0.70;;
15764;SDS011;7983;50.744;7.086;2023-02-26T12:52:08;1.90;;;0.77;;
15764;SDS011;7983;50.744;7.086;2023-02-26T13:05:23;0.60;;;0.50;;
15764;SDS011;7983;50.744;7.086;2023-02-26T13:08:18;1.13;;;0.80;;
15764;SDS011;7983;50.744;7.086;2023-02-26T13:16:33;1.00;;;0.80;;
15764;SDS011;7983;50.744;7.086;2023-02-26T13:19:09;1.70;;;0.70;;
15764;SDS011;7983;50.744;7.086;2023-02-26T13:22:01;1.50;;;0.90;;
15764;SDS011;7983;50.744;7.086;2023-02-26T13:24:36;1.73;;;0.90;;
15764;SDS011;7983;50.744;7.086;2023-02-26T13:27:05;4.00;;;2.43;;
15764;SDS011;7983;50.744;7.086;2023-02-26T13:29:35;1.97;;;1.10;;
15764;SDS011;7983;50.744;7.086;2023-02-26T13:32:10;1.10;;;0.90;;
15764;SDS011;7983;50.744;7.086;2023-02-26T13:56:07;0.87;;;0.50;;
15764;SDS011;7983;50.744;7.086;2023-02-26T13:58:37;1.50;;;0.87;;
15764;SDS011;7983;50.744;7.086;2023-02-26T14:01:16;1.10;;;0.70;;
15764;SDS011;7983;50.744;7.086;2023-02-26T14:12:02;1.53;;;0.63;;
15764;SDS011;7983;50.744;7.086;2023-02-26T14:22:19;1.37;;;0.80;;
15764;SDS011;7983;50.744;7.086;2023-02-26T14:25:00;0.97;;;0.60;;
15764;SDS011;7983;50.744;7.086;2023-02-26T14:27:44;1.73;;;0.70;;
15764;SDS011;7983;50.744;7.086;2023-02-26T14:32:47;1.33;;;0.70;;
15764;SDS011;7983;50.744;7.086;2023-02-26T14:35:29;0.80;;;0.60;;
15764;SDS011;7983;50.744;7.086;2023-02-26T14:38:03;2.10;;;1.00;;
15764;SDS011;7983;50.744;7.086;2023-02-26T14:40:46;1.90;;;1.50;;
15764;SDS011;7983;50.744;7.086;2023-02-26T14:43:18;1.90;;;1.07;;
15764;SDS011;7983;50.744;7.086;2023-02-26T14:45:48;1.43;;;0.97;;
15764;SDS011;7983;50.744;7.086;2023-02-26T14:48:17;1.43;;;0.77;;
15764;SDS011;7983;50.744;7.086;2023-02-26T14:56:13;0.90;;;0.70;;
15764;SDS011;7983;50.744;7.086;2023-02-26T15:12:50;1.13;;;0.70;;
15764;SDS011;7983;50.744;7.086;2023-02-26T15:26:25;1.05;;;0.65;;
15764;SDS011;7983;50.744;7.086;2023-02-26T15:28:51;0.80;;;0.63;;
15764;SDS011;7983;50.744;7.086;2023-02-26T15:31:26;1.03;;;0.60;;
15764;SDS011;7983;50.744;7.086;2023-02-26T15:34:16;0.73;;;0.63;;
15764;SDS011;7983;50.744;7.086;2023-02-26T15:36:47;1.10;;;0.70;;
15764;SDS011;7983;50.744;7.086;2023-02-26T15:39:14;0.70;;;0.60;;
15764;SDS011;7983;50.744;7.086;2023-02-26T15:41:48;1.50;;;0.90;;
15764;SDS011;7983;50.744;7.086;2023-02-26T15:44:17;1.03;;;0.67;;
15764;SDS011;7983;50.744;7.086;2023-02-26T15:46:55;2.43;;;0.70;;
15764;SDS011;7983;50.744;7.086;2023-02-26T15:51:56;1.53;;;0.60;;
15764;SDS011;7983;50.744;7.086;2023-02-26T15:54:24;1.30;;;0.63;;
15764;SDS011;7983;50.744;7.086;2023-02-26T15:57:02;1.37;;;0.70;;
15764;SDS011;7983;50.744;7.086;2023-02-26T15:59:30;1.13;;;0.60;;
15764;SDS011;7983;50.744;7.086;2023-02-26T16:01:57;1.47;;;0.80;;
15764;SDS011;7983;50.744;7.086;2023-02-26T16:04:26;1.30;;;0.70;;
15764;SDS011;7983;50.744;7.086;2023-02-26T16:06:53;1.33;;;0.90;;
15764;SDS011;7983;50.744;7.086;2023-02-26T16:11:53;2.70;;;1.43;;
15764;SDS011;7983;50.744;7.086;2023-02-26T16:14:23;3.50;;;2.37;;
15764;SDS011;7983;50.744;7.086;2023-02-26T16:16:54;2.17;;;1.50;;
15764;SDS011;7983;50.744;7.086;2023-02-26T16:19:31;1.83;;;1.03;;
15764;SDS011;7983;50.744;7.086;2023-02-26T16:22:04;1.63;;;1.07;;
15764;SDS011;7983;50.744;7.086;2023-02-26T16:24:36;1.40;;;0.70;;
15764;SDS011;7983;50.744;7.086;2023-02-26T16:27:03;1.80;;;0.70;;
15764;SDS011;7983;50.744;7.086;2023-02-26T16:29:32;0.87;;;0.67;;
15764;SDS011;7983;50.744;7.086;2023-02-26T16:32:02;1.50;;;0.90;;
15764;SDS011;7983;50.744;7.086;2023-02-26T16:37:30;2.77;;;1.00;;
15764;SDS011;7983;50.744;7.086;2023-02-26T16:40:15;1.40;;;0.80;;
15764;SDS011;7983;50.744;7.086;2023-02-26T16:47:41;1.23;;;0.83;;
15764;SDS011;7983;50.744;7.086;2023-02-26T16:50:16;1.30;;;0.80;;
15764;SDS011;7983;50.744;7.086;2023-02-26T16:55:31;2.50;;;1.83;;
15764;SDS011;7983;50.744;7.086;2023-02-26T16:58:03;4.40;;;1.70;;
15764;SDS011;7983;50.744;7.086;2023-02-26T17:00:41;1.87;;;1.00;;
15764;SDS011;7983;50.744;7.086;2023-02-26T17:03:18;1.60;;;1.20;;
15764;SDS011;7983;50.744;7.086;2023-02-26T17:05:53;2.70;;;0.90;;
15764;SDS011;7983;50.744;7.086;2023-02-26T17:08:35;1.07;;;0.80;;
15764;SDS011;7983;50.744;7.086;2023-02-26T17:11:24;1.00;;;0.67;;
15764;SDS011;7983;50.744;7.086;2023-02-26T17:14:24;1.67;;;0.67;;
15764;SDS011;7983;50.744;7.086;2023-02-26T17:16:53;2.43;;;1.23;;
15764;SDS011;7983;50.744;7.086;2023-02-26T17:19:19;1.20;;;0.80;;
15764;SDS011;7983;50.744;7.086;2023-02-26T17:21:48;0.90;;;0.80;;
15764;SDS011;7983;50.744;7.086;2023-02-26T17:24:37;2.47;;;0.90;;
15764;SDS011;7983;50.744;7.086;2023-02-26T17:27:09;2.37;;;1.00;;
15764;SDS011;7983;50.744;7.086;2023-02-26T17:29:40;2.10;;;1.57;;
15764;SDS011;7983;50.744;7.086;2023-02-26T17:32:18;2.23;;;1.17;;
15764;SDS011;7983;50.744;7.086;2023-02-26T17:34:46;1.50;;;1.00;;
15764;SDS011;7983;50.744;7.086;2023-02-26T17:37:13;1.07;;;0.70;;
15764;SDS011;7983;50.744;7.086;2023-02-26T17:39:40;1.40;;;0.70;;
15764;SDS011;7983;50.744;7.086;2023-02-26T17:42:13;1.10;;;0.70;;
15764;SDS011;7983;50.744;7.086;2023-02-26T17:44:47;1.00;;;0.80;;
15764;SDS011;7983;50.744;7.086;2023-02-26T17:47:14;1.20;;;0.90;;
15764;SDS011;7983;50.744;7.086;2023-02-26T17:49:44;3.23;;;1.47;;
15764;SDS011;7983;50.744;7.086;2023-02-26T17:52:10;1.57;;;1.20;;
15764;SDS011;7983;50.744;7.086;2023-02-26T17:54:36;3.33;;;1.17;;
15764;SDS011;7983;50.744;7.086;2023-02-26T17:57:05;1.83;;;1.03;;
15764;SDS011;7983;50.744;7.086;2023-02-26T17:59:31;3.93;;;2.63;;
15764;SDS011;7983;50.744;7.086;2023-02-26T18:01:58;4.63;;;2.70;;
15764;SDS011;7983;50.744;7.086;2023-02-26T18:04:23;2.80;;;1.60;;
15764;SDS011;7983;50.744;7.086;2023-02-26T18:06:49;2.30;;;1.50;;
15764;SDS011;7983;50.744;7.086;2023-02-26T18:09:17;2.60;;;1.30;;
15764;SDS011;7983;50.744;7.086;2023-02-26T18:11:43;3.43;;;1.27;;
15764;SDS011;7983;50.744;7.086;2023-02-26T18:14:11;2.13;;;1.00;;
15764;SDS011;7983;50.744;7.086;2023-02-26T18:16:38;1.97;;;1.10;;
15764;SDS011;7983;50.744;7.086;2023-02-26T18:19:09;1.70;;;1.00;;
15764;SDS011;7983;50.744;7.086;2023-02-26T18:21:41;1.10;;;0.83;;
15764;SDS011;7983;50.744;7.086;2023-02-26T18:24:09;1.67;;;1.00;;
15764;SDS011;7983;50.744;7.086;2023-02-26T18:26:37;1.63;;;1.47;;
15764;SDS011;7983;50.744;7.086;2023-02-26T18:29:05;1.77;;;1.27;;
15764;SDS011;7983;50.744;7.086;2023-02-26T18:31:33;1.73;;;0.97;;
15764;SDS011;7983;50.744;7.086;2023-02-26T18:33:59;1.50;;;0.73;;
15764;SDS011;7983;50.744;7.086;2023-02-26T18:36:26;1.30;;;1.00;;
15764;SDS011;7983;50.744;7.086;2023-02-26T18:39:04;4.70;;;3.07;;
15764;SDS011;7983;50.744;7.086;2023-02-26T18:41:33;6.77;;;3.93;;
15764;SDS011;7983;50.744;7.086;2023-02-26T18:43:58;3.67;;;2.40;;
15764;SDS011;7983;50.744;7.086;2023-02-26T18:46:27;2.57;;;1.80;;
15764;SDS011;7983;50.744;7.086;2023-02-26T18:48:56;1.87;;;1.40;;